西安 の空港の天気 - METARとTAF

西安咸陽国際空港 ( ZLXY / XIY ) - 中国 陝西省西安市
飛行場実況気象(Metar)
観測時間07/07 19:00 CST (07/07 11:00 UTC)
風向・風速東北東 4m/s
視程10km以上
天気現象
なし
気温35℃
湿度39%
気圧1001hPa
METARZLXY 071100Z 06004MPS CAVOK 35/19 Q1001 NOSIG
過去の天気等 Google飛行場航空写真 Wunderground天気予報

過去48時間のMETAR

飛行場予報(TAF)
発表時間: 7/07 17:03 CST (7/07 09:03 UTC)
予報対象時間: 7日20時 CST ~ 8日20時 CST
風向・風速東北東 3m/s
視程3000m
天気現象煙霧
なし
TAF ZLXY 070903Z 0712/0812 06003MPS 3000 HZ NSC TX38/0809Z TN23/0722Z